Time,TemperatureF,DewpointF,PressureIn,WindDirection,WindDirectionDegrees,WindSpeedMPH,WindSpeedGustMPH,Humidity,HourlyPrecipIn,Conditions,Clouds,dailyrainin,SoftwareType,DateUTC
2013-04-24 00:03:00,38.8,9.2,30.30,North,0,0.0,0.0,29,0.00,OVC,,0.31,WeatherDisplay:10.37,2013-04-24 05:03:00,
2013-04-24 00:08:00,38.8,9.2,30.30,North,0,0.0,0.0,29,0.00,RA,OVC,0.00,WeatherDisplay:10.37,2013-04-24 05:08:00,
2013-04-24 00:13:00,38.8,9.2,30.30,North,0,0.0,0.0,29,0.00,RA,OVC,0.00,WeatherDisplay:10.37,2013-04-24 05:13:00,
2013-04-24 00:18:00,38.8,6.8,30.30,North,0,0.0,0.0,26,0.00,OVC,,0.00,WeatherDisplay:10.37,2013-04-24 05:18:00,
2013-04-24 00:23:00,38.8,6.8,30.30,North,0,0.0,0.0,26,0.00,OVC,,0.00,WeatherDisplay:10.37,2013-04-24 05:23:00,
2013-04-24 00:28:00,38.8,6.8,30.30,North,0,0.0,0.0,26,0.00,OVC,,0.00,WeatherDisplay:10.37,2013-04-24 05:28:00,
2013-04-24 00:33:00,38.8,6.8,30.30,North,0,0.0,0.0,26,0.00,OVC,,0.00,WeatherDisplay:10.37,2013-04-24 05:33:00,
2013-04-24 00:38:00,38.7,6.7,30.30,North,0,0.0,0.0,26,0.00,OVC,,0.00,WeatherDisplay:10.37,2013-04-24 05:38:00,
2013-04-24 00:43:00,38.7,6.7,30.26,North,0,0.0,0.0,26,0.00,OVC,,0.00,WeatherDisplay:10.37,2013-04-24 05:43:00,
2013-04-24 00:48:00,38.5,6.5,30.26,North,0,0.0,0.0,26,0.00,OVC,,0.00,WeatherDisplay:10.37,2013-04-24 05:48:00,
2013-04-24 00:53:00,38.5,6.5,30.26,North,0,0.0,0.0,26,0.00,OVC,,0.00,WeatherDisplay:10.37,2013-04-24 05:53:00,
2013-04-24 00:58:00,38.5,6.5,30.26,North,0,0.0,0.0,26,0.00,OVC,,0.00,WeatherDisplay:10.37,2013-04-24 05:58:00,
2013-04-24 01:03:00,38.5,6.5,30.26,North,0,0.0,0.0,26,0.00,OVC,,0.00,WeatherDisplay:10.37,2013-04-24 06:03:00,
2013-04-24 01:08:00,38.5,6.5,30.26,North,0,0.0,0.0,26,0.00,OVC,,0.00,WeatherDisplay:10.37,2013-04-24 06:08:00,
2013-04-24 01:13:00,38.5,6.5,30.26,North,0,0.0,0.0,26,0.00,OVC,,0.00,WeatherDisplay:10.37,2013-04-24 06:13:00,
2013-04-24 01:18:00,38.5,6.5,30.26,North,0,0.0,0.0,26,0.00,OVC,,0.00,WeatherDisplay:10.37,2013-04-24 06:18:00,
2013-04-24 01:23:00,38.5,6.5,30.26,North,0,0.0,0.0,26,0.00,OVC,,0.00,WeatherDisplay:10.37,2013-04-24 06:23:00,
2013-04-24 01:28:00,38.3,8.8,30.26,North,0,0.0,0.0,29,0.00,OVC,,0.00,WeatherDisplay:10.37,2013-04-24 06:28:00,
2013-04-24 01:33:00,38.1,8.6,30.26,North,0,0.0,0.0,29,0.00,OVC,,0.00,WeatherDisplay:10.37,2013-04-24 06:33:00,
2013-04-24 01:38:00,37.9,8.5,30.26,North,0,0.0,0.0,29,0.00,OVC,,0.00,WeatherDisplay:10.37,2013-04-24 06:38:00,
2013-04-24 01:43:00,37.9,8.5,30.26,North,0,0.0,0.0,29,0.00,OVC,,0.00,WeatherDisplay:10.37,2013-04-24 06:43:00,
2013-04-24 01:48:00,37.8,8.3,30.26,North,0,0.0,0.0,29,0.00,OVC,,0.00,WeatherDisplay:10.37,2013-04-24 06:48:00,
2013-04-24 01:53:00,37.6,8.1,30.26,North,0,0.0,0.0,29,0.00,OVC,,0.00,WeatherDisplay:10.37,2013-04-24 06:53:00,
2013-04-24 01:58:00,37.6,8.1,30.26,North,0,0.0,0.0,29,0.00,OVC,,0.00,WeatherDisplay:10.37,2013-04-24 06:58:00,
2013-04-24 02:03:00,37.4,8.0,30.26,North,0,0.0,0.0,29,0.00,OVC,,0.00,WeatherDisplay:10.37,2013-04-24 07:03:00,
2013-04-24 02:08:00,37.4,8.0,30.26,North,0,0.0,0.0,29,0.00,OVC,,0.00,WeatherDisplay:10.37,2013-04-24 07:08:00,
2013-04-24 02:13:00,37.6,8.1,30.26,North,0,0.0,0.0,29,0.00,OVC,,0.00,WeatherDisplay:10.37,2013-04-24 07:13:00,
2013-04-24 02:18:00,37.6,8.1,30.26,North,0,0.0,0.0,29,0.00,OVC,,0.00,WeatherDisplay:10.37,2013-04-24 07:18:00,
2013-04-24 02:23:00,37.6,8.9,30.26,North,0,0.0,0.0,30,0.00,OVC,,0.00,WeatherDisplay:10.37,2013-04-24 07:23:00,
2013-04-24 02:28:00,37.6,8.9,30.24,North,0,0.0,0.0,30,0.00,OVC,,0.00,WeatherDisplay:10.37,2013-04-24 07:28:00,
2013-04-24 02:33:00,37.6,8.9,30.24,North,0,0.0,0.0,30,0.00,OVC,,0.00,WeatherDisplay:10.37,2013-04-24 07:33:00,
2013-04-24 02:38:00,37.6,8.1,30.24,North,0,0.0,0.0,29,0.00,OVC,,0.00,WeatherDisplay:10.37,2013-04-24 07:38:00,
2013-04-24 02:43:00,37.6,8.1,30.24,North,0,0.0,0.0,29,0.00,OVC,,0.00,WeatherDisplay:10.37,2013-04-24 07:43:00,
2013-04-24 02:48:00,37.6,8.1,30.24,North,0,0.0,0.0,29,0.00,OVC,,0.00,WeatherDisplay:10.37,2013-04-24 07:48:00,
2013-04-24 02:53:00,37.8,5.9,30.24,North,0,0.0,0.0,26,0.00,OVC,,0.00,WeatherDisplay:10.37,2013-04-24 07:53:00,
2013-04-24 02:58:00,37.8,8.3,30.26,North,0,0.0,0.0,29,0.00,OVC,,0.00,WeatherDisplay:10.37,2013-04-24 07:58:00,
2013-04-24 03:03:00,37.6,5.7,30.26,North,0,0.0,0.0,26,0.00,OVC,,0.00,WeatherDisplay:10.37,2013-04-24 08:03:00,
2013-04-24 03:08:00,37.6,8.1,30.26,North,0,0.0,0.0,29,0.00,OVC,,0.00,WeatherDisplay:10.37,2013-04-24 08:08:00,
2013-04-24 03:13:00,37.6,8.1,30.24,North,0,0.0,0.0,29,0.00,OVC,,0.00,WeatherDisplay:10.37,2013-04-24 08:13:00,
2013-04-24 03:18:00,37.6,8.1,30.24,North,0,0.0,0.0,29,0.00,OVC,,0.00,WeatherDisplay:10.37,2013-04-24 08:18:00,
2013-04-24 03:23:00,37.4,8.0,30.24,North,0,0.0,0.0,29,0.00,OVC,,0.00,WeatherDisplay:10.37,2013-04-24 08:23:00,
2013-04-24 19:59:00,48.0,2.5,30.35,North,0,0.0,0.0,15,0.00,OVC,,0.00,WeatherDisplay:10.37,2013-04-25 00:59:00,
2013-04-24 20:04:00,47.7,-2.6,30.35,North,0,0.0,0.0,12,0.00,OVC,,0.00,WeatherDisplay:10.37,2013-04-25 01:04:00,
2013-04-24 20:09:00,47.5,-2.7,30.35,North,0,0.0,0.0,12,0.00,OVC,,0.00,WeatherDisplay:10.37,2013-04-25 01:09:00,
2013-04-24 20:14:00,47.3,-2.9,30.35,North,0,0.0,0.0,12,0.00,OVC,,0.00,WeatherDisplay:10.37,2013-04-25 01:14:00,
2013-04-24 20:19:00,47.1,-3.0,30.35,North,0,0.0,0.0,12,0.00,CLR,OVC,0.00,WeatherDisplay:10.37,2013-04-25 01:19:00,
2013-04-24 20:24:00,46.8,-3.3,30.35,North,0,0.0,0.0,12,0.00,CLR,OVC,0.00,WeatherDisplay:10.37,2013-04-25 01:24:00,
2013-04-24 20:29:00,46.4,-3.6,30.35,North,0,0.0,0.0,12,0.00,CLR,OVC,0.00,WeatherDisplay:10.37,2013-04-25 01:29:00,
2013-04-24 20:34:00,46.2,-3.7,30.35,North,0,0.0,0.0,12,0.00,CLR,OVC,0.00,WeatherDisplay:10.37,2013-04-25 01:34:00,
2013-04-24 20:39:00,45.9,-4.0,30.35,North,0,0.0,0.0,12,0.00,CLR,OVC,0.00,WeatherDisplay:10.37,2013-04-25 01:39:00,
2013-04-24 20:44:00,45.5,-4.3,30.35,North,0,0.0,0.0,12,0.00,CLR,OVC,0.00,WeatherDisplay:10.37,2013-04-25 01:44:00,
2013-04-24 20:49:00,45.3,-4.4,30.35,North,0,0.0,0.0,12,0.00,CLR,OVC,0.00,WeatherDisplay:10.37,2013-04-25 01:49:00,
2013-04-24 20:54:00,45.1,-4.6,30.35,North,0,0.0,0.0,12,0.00,CLR,OVC,0.00,WeatherDisplay:10.37,2013-04-25 01:54:00,
2013-04-24 20:59:00,45.1,-4.6,30.35,North,0,0.0,0.0,12,0.00,CLR,OVC,0.00,WeatherDisplay:10.37,2013-04-25 01:59:00,
2013-04-24 21:04:00,45.1,-4.6,30.35,North,0,0.0,0.0,12,0.00,CLR,OVC,0.00,WeatherDisplay:10.37,2013-04-25 02:04:00,
2013-04-24 21:09:00,45.1,-4.6,30.35,North,0,0.0,0.0,12,0.00,CLR,OVC,0.00,WeatherDisplay:10.37,2013-04-25 02:09:00,
2013-04-24 21:14:00,45.1,-4.6,30.35,North,0,0.0,0.0,12,0.00,CLR,OVC,0.00,WeatherDisplay:10.37,2013-04-25 02:14:00,
2013-04-24 21:19:00,44.8,-4.9,30.35,North,0,0.0,0.0,12,0.00,CLR,OVC,0.00,WeatherDisplay:10.37,2013-04-25 02:19:00,
2013-04-24 21:24:00,44.6,-5.0,30.35,North,0,0.0,0.0,12,0.00,CLR,OVC,0.00,WeatherDisplay:10.37,2013-04-25 02:24:00,
2013-04-24 21:29:00,44.4,-3.5,30.35,North,0,0.0,0.0,13,0.00,CLR,OVC,0.00,WeatherDisplay:10.37,2013-04-25 02:29:00,
2013-04-24 21:34:00,44.2,-3.6,30.35,North,0,0.0,0.0,13,0.00,CLR,OVC,0.00,WeatherDisplay:10.37,2013-04-25 02:34:00,
2013-04-24 21:39:00,44.2,-3.6,30.35,North,0,0.0,0.0,13,0.00,CLR,OVC,0.00,WeatherDisplay:10.37,2013-04-25 02:39:00,
2013-04-24 21:44:00,44.2,-3.6,30.35,North,0,0.0,0.0,13,0.00,CLR,OVC,0.00,WeatherDisplay:10.37,2013-04-25 02:44:00,
2013-04-24 21:49:00,44.2,-3.6,30.35,North,0,0.0,0.0,13,0.00,CLR,OVC,0.00,WeatherDisplay:10.37,2013-04-25 02:49:00,
2013-04-24 21:54:00,44.2,-3.6,30.35,North,0,0.0,0.0,13,0.00,CLR,OVC,0.00,WeatherDisplay:10.37,2013-04-25 02:54:00,
2013-04-24 21:59:00,44.1,-3.8,30.35,North,0,0.0,0.0,13,0.00,CLR,OVC,0.00,WeatherDisplay:10.37,2013-04-25 02:59:00,
2013-04-24 22:04:00,44.2,-3.6,30.35,North,0,0.0,0.0,13,0.00,CLR,OVC,0.00,WeatherDisplay:10.37,2013-04-25 03:04:00,
2013-04-24 22:09:00,44.2,-3.6,30.35,North,0,0.0,0.0,13,0.00,CLR,OVC,0.00,WeatherDisplay:10.37,2013-04-25 03:09:00,
2013-04-24 22:14:00,44.1,-3.8,30.35,North,0,0.0,0.0,13,0.00,CLR,OVC,0.00,WeatherDisplay:10.37,2013-04-25 03:14:00,
2013-04-24 22:19:00,43.9,-3.9,30.35,North,0,0.0,0.0,13,0.00,CLR,OVC,0.00,WeatherDisplay:10.37,2013-04-25 03:19:00,
2013-04-24 22:24:00,44.1,-3.8,30.35,North,0,0.0,0.0,13,0.00,CLR,OVC,0.00,WeatherDisplay:10.37,2013-04-25 03:24:00,
2013-04-24 22:29:00,43.9,-3.9,30.35,North,0,0.0,0.0,13,0.00,CLR,OVC,0.00,WeatherDisplay:10.37,2013-04-25 03:29:00,
2013-04-24 22:34:00,43.7,-4.0,30.35,North,0,0.0,0.0,13,0.00,CLR,OVC,0.00,WeatherDisplay:10.37,2013-04-25 03:34:00,
2013-04-24 22:39:00,43.7,-4.0,30.35,North,0,0.0,0.0,13,0.00,CLR,OVC,0.00,WeatherDisplay:10.37,2013-04-25 03:39:00,
2013-04-24 22:44:00,43.7,-4.0,30.32,North,0,0.0,0.0,13,0.00,CLR,OVC,0.00,WeatherDisplay:10.37,2013-04-25 03:44:00,
2013-04-24 22:49:00,43.7,-4.0,30.32,North,0,0.0,0.0,13,0.00,CLR,OVC,0.00,WeatherDisplay:10.37,2013-04-25 03:49:00,
2013-04-24 22:54:00,43.7,-4.0,30.32,North,0,0.0,0.0,13,0.00,CLR,OVC,0.00,WeatherDisplay:10.37,2013-04-25 03:54:00,
2013-04-24 22:59:00,43.7,-4.0,30.32,North,0,0.0,0.0,13,0.00,CLR,OVC,0.00,WeatherDisplay:10.37,2013-04-25 03:59:00,
2013-04-24 23:01:00,43.5,-4.2,30.32,North,0,0.0,0.0,13,0.00,CLR,OVC,0.00,WeatherDisplay:10.37,2013-04-25 04:01:00,
2013-04-24 23:02:00,43.5,-4.2,30.32,North,0,0.0,0.0,13,0.00,CLR,OVC,0.00,WeatherDisplay:10.37,2013-04-25 04:02:00,
2013-04-24 23:07:00,43.5,-4.2,30.32,North,0,0.0,0.0,13,0.00,CLR,OVC,0.00,WeatherDisplay:10.37,2013-04-25 04:07:00,
2013-04-24 23:12:00,43.5,-4.2,30.32,North,0,0.0,0.0,13,0.00,CLR,OVC,0.00,WeatherDisplay:10.37,2013-04-25 04:12:00,
2013-04-24 23:17:00,43.5,-4.2,30.35,North,0,0.0,0.0,13,0.00,CLR,OVC,0.00,WeatherDisplay:10.37,2013-04-25 04:17:00,
2013-04-24 23:22:00,43.5,-4.2,30.35,North,0,0.0,0.0,13,0.00,CLR,OVC,0.00,WeatherDisplay:10.37,2013-04-25 04:22:00,
2013-04-24 23:27:00,43.3,-4.3,30.35,North,0,0.0,0.0,13,0.00,CLR,OVC,0.00,WeatherDisplay:10.37,2013-04-25 04:27:00,
2013-04-24 23:32:00,43.5,-4.2,30.35,North,0,0.0,0.0,13,0.00,CLR,OVC,0.00,WeatherDisplay:10.37,2013-04-25 04:32:00,
2013-04-24 23:37:00,43.7,-1.0,30.35,North,0,0.0,0.0,15,0.00,CLR,OVC,0.00,WeatherDisplay:10.37,2013-04-25 04:37:00,
2013-04-24 23:42:00,44.1,-0.7,30.35,North,0,0.0,0.0,15,0.00,CLR,OVC,0.00,WeatherDisplay:10.37,2013-04-25 04:42:00,
2013-04-24 23:47:00,44.2,-3.6,30.35,North,0,0.0,0.0,13,0.00,CLR,OVC,0.00,WeatherDisplay:10.37,2013-04-25 04:47:00,
2013-04-24 23:52:00,44.4,-3.5,30.35,North,0,0.0,0.0,13,0.00,CLR,OVC,0.00,WeatherDisplay:10.37,2013-04-25 04:52:00,
2013-04-24 23:57:00,44.4,-3.5,30.35,North,0,0.0,0.0,13,0.00,CLR,OVC,0.00,WeatherDisplay:10.37,2013-04-25 04:57:00,